createdAt,value
2023-04-07T00:01:26.598Z,58.52
2023-04-07T00:05:15.898Z,58.85
2023-04-07T00:08:57.065Z,59.30
2023-04-07T00:12:39.390Z,59.19
2023-04-07T00:16:10.248Z,59.51
2023-04-07T00:19:44.505Z,59.68
2023-04-07T00:23:32.861Z,60.09
2023-04-07T00:27:21.973Z,60.42
2023-04-07T00:30:47.145Z,60.41
2023-04-07T00:34:36.353Z,60.59
2023-04-07T00:38:25.521Z,60.72
2023-04-07T00:42:08.960Z,60.69
2023-04-07T00:45:57.924Z,60.81
2023-04-07T00:49:46.087Z,61.24
2023-04-07T00:53:26.534Z,61.29
2023-04-07T00:57:01.165Z,61.10
2023-04-07T01:00:24.534Z,61.34
2023-04-07T01:04:12.812Z,61.35
2023-04-07T01:07:52.338Z,61.22
2023-04-07T01:11:18.253Z,61.29
2023-04-07T01:14:47.150Z,61.48
2023-04-07T01:18:38.974Z,61.58
2023-04-07T01:22:13.500Z,61.96
2023-04-07T01:25:52.022Z,62.08
2023-04-07T01:29:14.465Z,62.60
2023-04-07T01:32:47.907Z,62.66
2023-04-07T01:36:17.807Z,62.95
2023-04-07T01:43:32.576Z,63.57
2023-04-07T01:47:13.844Z,63.73
2023-04-07T01:50:54.326Z,64.11
2023-04-07T01:54:31.113Z,64.24
2023-04-07T01:58:20.081Z,64.56
2023-04-07T02:02:00.968Z,64.72
2023-04-07T02:05:51.566Z,65.11
2023-04-07T02:09:19.427Z,65.55
2023-04-07T02:12:58.050Z,65.78
2023-04-07T02:16:32.753Z,66.09
2023-04-07T02:20:14.886Z,66.27
2023-04-07T02:23:57.246Z,66.40
2023-04-07T02:27:46.366Z,66.68
2023-04-07T02:31:17.018Z,66.65
2023-04-07T02:35:05.558Z,66.80
2023-04-07T02:38:45.922Z,66.86
2023-04-07T02:42:27.409Z,67.10
2023-04-07T02:46:11.858Z,67.16
2023-04-07T02:49:45.788Z,67.22
2023-04-07T02:53:25.225Z,67.16
2023-04-07T02:56:30.783Z,67.21
2023-04-07T03:00:03.258Z,67.39
2023-04-07T03:03:45.409Z,67.42
2023-04-07T03:07:23.619Z,67.22
2023-04-07T03:10:36.797Z,67.66
2023-04-07T03:14:01.211Z,67.39
2023-04-07T03:17:39.820Z,67.47
2023-04-07T03:21:29.021Z,67.55
2023-04-07T03:24:54.091Z,67.89
2023-04-07T03:28:29.127Z,67.94
2023-04-07T03:31:56.262Z,67.97
2023-04-07T03:35:45.469Z,67.93
2023-04-07T03:39:34.726Z,68.19
2023-04-07T03:42:31.267Z,68.15
2023-04-07T03:46:13.897Z,68.36
2023-04-07T03:50:03.180Z,68.33
2023-04-07T03:53:21.499Z,68.31
2023-04-07T03:56:55.311Z,68.44
2023-04-07T04:00:36.700Z,68.75
2023-04-07T04:04:10.819Z,68.91
2023-04-07T04:07:41.779Z,69.00
2023-04-07T04:11:24.481Z,69.17
2023-04-07T04:14:21.865Z,69.24
2023-04-07T04:17:36.948Z,69.37
2023-04-07T04:21:12.762Z,69.73
2023-04-07T04:25:02.262Z,69.85
2023-04-07T04:28:49.074Z,70.12
2023-04-07T04:32:14.191Z,70.13
2023-04-07T04:35:50.376Z,70.31
2023-04-07T04:39:31.582Z,70.71
2023-04-07T04:43:19.844Z,70.74
2023-04-07T04:46:49.081Z,70.96
2023-04-07T04:50:27.178Z,71.23
2023-04-07T04:54:03.092Z,71.64
2023-04-07T04:57:40.226Z,71.47
2023-04-07T05:01:02.875Z,71.78
2023-04-07T05:04:25.463Z,71.81
2023-04-07T05:08:14.795Z,72.07
2023-04-07T05:11:55.175Z,72.25
2023-04-07T05:15:31.532Z,72.46
2023-04-07T05:18:57.268Z,72.53
2023-04-07T05:22:46.834Z,72.82
2023-04-07T05:26:37.044Z,73.02
2023-04-07T05:30:16.981Z,72.98
2023-04-07T05:33:51.175Z,73.31
2023-04-07T05:37:32.012Z,73.46
2023-04-07T05:40:55.116Z,73.81
2023-04-07T05:43:56.296Z,73.69
2023-04-07T05:46:45.145Z,73.90
2023-04-07T05:49:46.897Z,74.16
2023-04-07T05:52:44.044Z,74.26
2023-04-07T05:55:34.237Z,74.39
2023-04-07T05:58:17.359Z,74.71
2023-04-07T06:01:34.047Z,74.75
2023-04-07T06:04:22.973Z,75.07
2023-04-07T06:07:29.606Z,75.17
2023-04-07T06:10:13.650Z,75.11
2023-04-07T06:13:12.848Z,75.23
2023-04-07T06:15:52.485Z,75.45
2023-04-07T06:18:36.331Z,75.71
2023-04-07T06:21:35.830Z,75.41
2023-04-07T06:24:33.392Z,75.54
2023-04-07T06:27:31.977Z,75.52
2023-04-07T06:30:32.821Z,75.62
2023-04-07T06:33:16.053Z,75.70
2023-04-07T06:36:17.150Z,75.65
2023-04-07T06:39:04.004Z,75.94
2023-04-07T06:42:01.349Z,76.05
2023-04-07T06:45:02.492Z,76.04
2023-04-07T06:47:55.688Z,76.21
2023-04-07T06:50:56.293Z,76.35
2023-04-07T06:53:52.214Z,76.74
2023-04-07T06:56:27.375Z,76.62
2023-04-07T06:59:19.175Z,76.54
2023-04-07T07:02:08.293Z,76.68
2023-04-07T07:04:59.557Z,76.83
2023-04-07T07:08:11.041Z,76.84
2023-04-07T07:11:04.703Z,76.99
2023-04-07T07:13:56.227Z,77.03
2023-04-07T07:16:43.575Z,77.10
2023-04-07T07:19:20.623Z,77.45
2023-04-07T07:22:08.255Z,77.43
2023-04-07T07:25:10.729Z,77.69
2023-04-07T07:28:02.762Z,77.59
2023-04-07T07:30:40.254Z,77.44
2023-04-07T07:33:27.924Z,77.80
2023-04-07T07:36:15.113Z,77.78
2023-04-07T07:38:59.345Z,78.04
2023-04-07T07:41:50.915Z,78.43
2023-04-07T07:44:37.267Z,78.31
2023-04-07T07:47:37.834Z,78.40
2023-04-07T07:51:27.373Z,78.63
2023-04-07T07:55:16.565Z,79.13
2023-04-07T07:58:59.456Z,79.07
2023-04-07T08:02:31.675Z,79.00
2023-04-07T08:06:21.033Z,79.11
2023-04-07T08:10:03.017Z,79.69
2023-04-07T08:13:51.167Z,79.61
2023-04-07T08:17:40.331Z,79.60
2023-04-07T08:20:40.046Z,79.88
2023-04-07T08:24:29.016Z,79.66
2023-04-07T08:28:07.957Z,79.90
2023-04-07T08:31:48.699Z,80.08
2023-04-07T08:34:51.907Z,80.02
2023-04-07T08:38:21.120Z,79.91
2023-04-07T08:41:45.701Z,80.22
2023-04-07T08:44:36.607Z,80.47
2023-04-07T08:47:44.283Z,80.18
2023-04-07T08:51:10.444Z,80.15
2023-04-07T08:54:59.501Z,79.83
2023-04-07T08:58:46.321Z,79.96
2023-04-07T09:02:11.553Z,80.04
2023-04-07T09:06:00.898Z,79.76
2023-04-07T09:09:49.986Z,79.30
2023-04-07T09:13:39.162Z,79.29
2023-04-07T09:17:15.304Z,79.50
2023-04-07T09:20:33.037Z,79.44
2023-04-07T09:24:11.251Z,79.42
2023-04-07T09:27:51.725Z,79.29
2023-04-07T09:31:39.965Z,79.16
2023-04-07T09:35:29.144Z,79.33
2023-04-07T09:39:09.813Z,78.79
2023-04-07T09:42:37.336Z,79.28
2023-04-07T09:46:27.188Z,79.08
2023-04-07T09:50:06.861Z,79.20
2023-04-07T09:53:56.500Z,79.42
2023-04-07T09:57:19.956Z,79.52
2023-04-07T10:00:58.230Z,79.56
2023-04-07T10:04:17.892Z,79.75
2023-04-07T10:07:43.678Z,79.72
2023-04-07T10:11:27.421Z,79.90
2023-04-07T10:15:07.647Z,80.04
2023-04-07T10:18:02.699Z,79.45
2023-04-07T10:21:51.786Z,79.58
2023-04-07T10:25:20.138Z,79.83
2023-04-07T10:28:59.678Z,79.89
2023-04-07T10:32:20.220Z,80.14
2023-04-07T10:35:59.738Z,80.50
2023-04-07T10:39:40.599Z,80.62
2023-04-07T10:43:38.897Z,80.94
2023-04-07T10:47:28.165Z,81.20
2023-04-07T10:51:20.100Z,81.23
2023-04-07T10:55:00.864Z,81.47
2023-04-07T10:58:54.339Z,81.49
2023-04-07T11:01:59.853Z,81.55
2023-04-07T11:04:49.317Z,81.64
2023-04-07T11:08:34.998Z,81.69
2023-04-07T11:12:39.370Z,82.25
2023-04-07T11:16:28.664Z,82.33
2023-04-07T11:19:49.223Z,82.14
2023-04-07T11:23:34.323Z,82.20
2023-04-07T11:27:08.954Z,82.38
2023-04-07T11:30:49.517Z,82.37
2023-04-07T11:34:34.682Z,82.22
2023-04-07T11:38:06.480Z,82.09
2023-04-07T11:41:55.727Z,82.54
2023-04-07T11:45:37.635Z,82.56
2023-04-07T11:49:16.761Z,82.78
2023-04-07T11:53:06.137Z,83.15
2023-04-07T11:56:41.484Z,82.90
2023-04-07T12:00:29.638Z,82.89
2023-04-07T12:04:21.642Z,83.21
2023-04-07T12:07:59.578Z,83.42
2023-04-07T12:11:41.474Z,82.81
2023-04-07T12:14:59.207Z,83.24
2023-04-07T12:18:23.084Z,83.16
2023-04-07T12:21:27.709Z,83.15
2023-04-07T12:24:33.072Z,83.17
2023-04-07T12:27:55.213Z,83.53
2023-04-07T12:31:01.156Z,83.42
2023-04-07T12:34:05.854Z,83.13
2023-04-07T12:36:57.193Z,82.87
2023-04-07T12:39:53.832Z,82.99
2023-04-07T12:43:23.966Z,82.99
2023-04-07T12:46:49.885Z,83.50
2023-04-07T12:50:04.974Z,83.47
2023-04-07T12:53:13.987Z,83.83
2023-04-07T12:56:16.459Z,84.08
2023-04-07T12:59:32.351Z,84.58
2023-04-07T13:02:46.738Z,84.45
2023-04-07T13:05:35.151Z,84.07
2023-04-07T13:08:32.631Z,84.25
2023-04-07T13:11:55.154Z,84.36
2023-04-07T13:15:05.391Z,84.14
2023-04-07T13:18:27.055Z,84.36
2023-04-07T13:21:54.910Z,84.04
2023-04-07T13:25:19.509Z,84.52
2023-04-07T13:28:25.152Z,84.92
2023-04-07T13:31:39.101Z,85.06
2023-04-07T13:35:05.125Z,85.10
2023-04-07T13:38:45.806Z,84.91
2023-04-07T13:42:16.838Z,85.01
2023-04-07T13:45:42.297Z,84.77
2023-04-07T13:48:56.632Z,84.61
2023-04-07T13:52:45.734Z,84.59
2023-04-07T13:56:11.403Z,85.03
2023-04-07T13:59:53.723Z,85.11
2023-04-07T14:03:35.969Z,85.34
2023-04-07T14:07:15.572Z,85.63
2023-04-07T14:10:44.678Z,85.61
2023-04-07T14:14:33.944Z,85.42
2023-04-07T14:18:12.150Z,85.56
2023-04-07T14:22:01.450Z,85.61
2023-04-07T14:25:50.766Z,85.43
2023-04-07T14:29:40.071Z,85.54
2023-04-07T14:33:12.463Z,85.47
2023-04-07T14:36:45.036Z,85.71
2023-04-07T14:40:34.306Z,86.01
2023-04-07T14:44:23.574Z,86.59
2023-04-07T14:48:12.776Z,86.71
2023-04-07T14:52:02.030Z,86.93
2023-04-07T14:55:36.471Z,86.91
2023-04-07T14:59:25.822Z,86.79
2023-04-07T15:03:15.220Z,86.73
2023-04-07T15:06:59.554Z,87.10
2023-04-07T15:10:48.833Z,86.98
2023-04-07T15:14:38.101Z,86.77
2023-04-07T15:18:27.345Z,87.05
2023-04-07T15:22:16.349Z,87.13
2023-04-07T15:26:05.619Z,87.39
2023-04-07T15:29:54.988Z,87.48
2023-04-07T15:33:44.208Z,87.64
2023-04-07T15:37:23.602Z,87.68
2023-04-07T15:41:01.416Z,87.73
2023-04-07T15:44:50.584Z,88.16
2023-04-07T15:48:39.810Z,88.50
2023-04-07T15:52:21.759Z,88.43
2023-04-07T15:56:10.921Z,88.76
2023-04-07T16:00:00.207Z,88.62
2023-04-07T16:03:49.754Z,88.90
2023-04-07T16:07:39.552Z,88.93
2023-04-07T16:11:28.933Z,88.88
2023-04-07T16:15:32.399Z,89.10
2023-04-07T16:19:25.863Z,89.26
2023-04-07T16:23:15.203Z,89.26
2023-04-07T16:27:04.640Z,89.33
2023-04-07T16:30:54.127Z,89.31
2023-04-07T16:34:43.304Z,89.19
2023-04-07T16:38:32.681Z,89.52
2023-04-07T16:42:20.755Z,89.58
2023-04-07T16:45:58.780Z,89.70
2023-04-07T16:49:37.778Z,89.74
2023-04-07T16:53:21.197Z,90.01
2023-04-07T16:56:59.427Z,90.13
2023-04-07T17:00:48.801Z,90.37
2023-04-07T17:04:38.036Z,90.35
2023-04-07T17:08:27.229Z,90.39
2023-04-07T17:12:16.508Z,90.40
2023-04-07T17:16:05.786Z,90.02
2023-04-07T17:19:56.842Z,90.33
2023-04-07T17:23:14.452Z,90.46
2023-04-07T17:26:49.705Z,90.69
2023-04-07T17:30:38.850Z,90.73
2023-04-07T17:34:28.230Z,90.72
2023-04-07T17:38:07.552Z,90.71
2023-04-07T17:41:42.281Z,90.87
2023-04-07T17:45:22.548Z,91.08
2023-04-07T17:49:11.618Z,90.98
2023-04-07T17:53:00.887Z,91.09
2023-04-07T17:56:50.160Z,91.19
2023-04-07T18:00:39.941Z,91.43
2023-04-07T18:04:20.014Z,91.54
2023-04-07T18:07:56.482Z,91.50
2023-04-07T18:11:45.771Z,91.48
2023-04-07T18:15:20.148Z,91.45
2023-04-07T18:19:09.341Z,91.70
2023-04-07T18:22:58.618Z,91.85
2023-04-07T18:26:48.029Z,91.94
2023-04-07T18:30:36.032Z,92.08
2023-04-07T18:34:25.228Z,92.04
2023-04-07T18:38:14.485Z,92.20
2023-04-07T18:42:03.614Z,92.37
2023-04-07T18:44:57.112Z,92.55
2023-04-07T18:48:46.384Z,92.67
2023-04-07T18:52:27.065Z,92.73
2023-04-07T18:56:16.172Z,92.98
2023-04-07T18:59:55.667Z,92.88
2023-04-07T19:03:44.024Z,92.84
2023-04-07T19:07:26.695Z,93.01
2023-04-07T19:11:09.053Z,93.11
2023-04-07T19:14:48.401Z,92.85
2023-04-07T19:18:31.936Z,93.05
2023-04-07T19:22:21.149Z,93.21
2023-04-07T19:26:10.337Z,92.97
2023-04-07T19:29:59.769Z,93.01
2023-04-07T19:33:47.949Z,93.08
2023-04-07T19:37:27.588Z,93.11
2023-04-07T19:41:16.501Z,93.60
2023-04-07T19:44:58.497Z,93.68
2023-04-07T19:48:47.880Z,93.52
2023-04-07T19:52:37.153Z,93.26
2023-04-07T19:56:14.711Z,93.69
2023-04-07T19:59:40.065Z,93.68
2023-04-07T20:03:29.771Z,93.86
2023-04-07T20:07:13.184Z,94.07
2023-04-07T20:11:02.556Z,94.00
2023-04-07T20:14:14.455Z,94.11
2023-04-07T20:17:43.295Z,93.98
2023-04-07T20:21:26.999Z,94.01
2023-04-07T20:24:57.835Z,94.30
2023-04-07T20:28:24.604Z,94.27
2023-04-07T20:32:13.848Z,94.57
2023-04-07T20:35:57.085Z,94.28
2023-04-07T20:39:46.459Z,94.43
2023-04-07T20:43:28.487Z,94.59
2023-04-07T20:47:09.036Z,94.41
2023-04-07T20:51:07.005Z,94.42
2023-04-07T20:54:56.176Z,94.47
2023-04-07T20:58:45.360Z,94.65
2023-04-07T21:02:34.981Z,94.83
2023-04-07T21:06:24.414Z,94.76
2023-04-07T21:10:14.704Z,94.89
2023-04-07T21:13:53.017Z,95.18
2023-04-07T21:17:27.598Z,95.23
2023-04-07T21:21:19.660Z,95.13
2023-04-07T21:24:51.529Z,94.93
2023-04-07T21:28:41.132Z,95.06
2023-04-07T21:32:47.929Z,95.21
2023-04-07T21:36:12.744Z,95.41
2023-04-07T21:39:43.242Z,95.70
2023-04-07T21:43:11.210Z,95.67
2023-04-07T21:47:00.590Z,95.66
2023-04-07T21:50:43.105Z,95.75
2023-04-07T21:54:25.415Z,95.55
2023-04-07T21:58:03.324Z,95.83
2023-04-07T22:01:42.406Z,95.95
2023-04-07T22:05:30.410Z,95.98
2023-04-07T22:09:11.381Z,96.05
2023-04-07T22:12:45.598Z,96.14
2023-04-07T22:16:22.869Z,96.18
2023-04-07T22:19:46.361Z,96.06
2023-04-07T22:23:34.611Z,96.12
2023-04-07T22:27:13.639Z,96.16
2023-04-07T22:31:03.078Z,96.33
2023-04-07T22:34:52.205Z,96.29
2023-04-07T22:38:41.383Z,96.26
2023-04-07T22:42:21.359Z,96.43
2023-04-07T22:46:09.351Z,96.72
2023-04-07T22:49:33.741Z,96.92
2023-04-07T22:53:13.180Z,96.79
2023-04-07T22:56:54.744Z,96.89
2023-04-07T23:00:43.679Z,96.77
2023-04-07T23:04:32.885Z,96.91
2023-04-07T23:08:22.021Z,97.21
2023-04-07T23:12:05.264Z,97.55
2023-04-07T23:15:32.979Z,97.60
2023-04-07T23:19:15.652Z,97.78
2023-04-07T23:23:04.881Z,97.80
2023-04-07T23:26:53.989Z,97.66
2023-04-07T23:30:37.024Z,97.91
2023-04-07T23:34:25.106Z,97.91
2023-04-07T23:37:51.134Z,97.91
2023-04-07T23:41:16.857Z,97.97
2023-04-07T23:45:05.985Z,98.04
2023-04-07T23:48:55.043Z,98.24
2023-04-07T23:52:42.901Z,98.22
2023-04-07T23:56:31.192Z,98.11
